Time;durP1;ratioP1;P1;durP2;ratioP2;P2;SDS_P1;SDS_P2;PMS_P1;PMS_P2;Temp;Humidity;BMP_temperature;BMP_pressure;BME280_temperature;BME280_humidity;BME280_pressure;Samples;Min_cycle;Max_cycle;Signal;HPM_P1;HPM_P2
2021/05/15 00:02:10;;;;;;;11.40;9.68;;;10.90;89.70;;;;;;5016856;28;20050;-87
2021/05/15 00:04:35;;;;;;;9.82;8.77;;;10.90;89.80;;;;;;5016789;28;20053;-87
2021/05/15 00:07:01;;;;;;;12.35;8.70;;;10.90;89.80;;;;;;5016026;28;20058;-87
2021/05/15 00:09:27;;;;;;;11.45;8.88;;;10.80;89.80;;;;;;5016526;28;20045;-87
2021/05/15 00:11:53;;;;;;;10.80;9.35;;;10.80;90.00;;;;;;5016527;28;20050;-86
2021/05/15 00:14:18;;;;;;;11.00;8.77;;;10.80;90.00;;;;;;5015665;28;20132;-87
2021/05/15 00:16:44;;;;;;;12.57;9.68;;;10.80;89.70;;;;;;5016586;28;20108;-86
2021/05/15 00:19:09;;;;;;;12.10;9.63;;;10.70;89.80;;;;;;5016693;28;20046;-87
2021/05/15 00:21:36;;;;;;;11.10;9.13;;;10.70;89.80;;;;;;5015636;28;20050;-87
2021/05/15 00:24:02;;;;;;;11.10;9.50;;;10.70;89.90;;;;;;5016610;28;20049;-86
2021/05/15 00:26:28;;;;;;;11.85;9.13;;;10.70;90.00;;;;;;5016329;28;20173;-86
2021/05/15 00:28:54;;;;;;;14.38;9.82;;;10.60;90.00;;;;;;5015522;28;20097;-86
2021/05/15 00:31:20;;;;;;;10.50;8.88;;;10.60;90.10;;;;;;5016409;28;20053;-86
2021/05/15 00:33:46;;;;;;;11.63;9.05;;;10.60;90.00;;;;;;5016288;28;20100;-86
2021/05/15 00:36:12;;;;;;;11.02;9.30;;;10.60;90.00;;;;;;5015543;28;20060;-86
2021/05/15 00:38:37;;;;;;;11.68;9.38;;;10.50;89.90;;;;;;5016404;28;20045;-86
2021/05/15 00:41:03;;;;;;;11.13;8.73;;;10.50;90.00;;;;;;5016058;28;20501;-86
2021/05/15 00:43:29;;;;;;;12.88;9.10;;;10.50;89.90;;;;;;5015089;28;20042;-86
2021/05/15 00:45:58;;;;;;;10.43;8.55;;;10.40;89.90;;;;;;5016192;28;20042;-87
2021/05/15 00:48:24;;;;;;;12.75;9.32;;;10.40;90.00;;;;;;5015750;28;20512;-86
2021/05/15 00:50:50;;;;;;;12.18;9.15;;;10.40;90.00;;;;;;5015020;28;20076;-87
2021/05/15 00:53:17;;;;;;;11.85;9.55;;;10.40;90.00;;;;;;5016115;28;20053;-86
2021/05/15 00:55:43;;;;;;;10.73;9.38;;;10.30;90.00;;;;;;5014849;28;20520;-86
2021/05/15 00:58:09;;;;;;;11.50;9.25;;;10.30;90.00;;;;;;5015930;28;20042;-86
2021/05/15 01:00:35;;;;;;;12.00;9.50;;;10.30;90.00;;;;;;5015825;28;20046;-86
2021/05/15 01:03:01;;;;;;;11.32;9.00;;;10.20;90.00;;;;;;5014887;28;20067;-86
2021/05/15 01:05:29;;;;;;;12.30;9.63;;;10.20;90.00;;;;;;5015822;28;20042;-86
2021/05/15 01:07:54;;;;;;;12.65;9.50;;;10.20;89.90;;;;;;5015672;28;20129;-86
2021/05/15 01:10:20;;;;;;;11.43;9.85;;;10.20;90.00;;;;;;5014791;28;20046;-86
2021/05/15 01:12:55;;;;;;;11.10;9.15;;;10.10;90.10;;;;;;5015541;28;20061;-85
2021/05/15 01:15:23;;;;;;;13.07;9.85;;;10.10;90.10;;;;;;5015683;28;20052;-85
2021/05/15 01:17:51;;;;;;;11.98;9.57;;;10.10;90.20;;;;;;5014738;28;20045;-85
2021/05/15 01:20:18;;;;;;;13.35;9.95;;;10.10;90.30;;;;;;5015539;28;20089;-85
2021/05/15 01:22:46;;;;;;;12.73;9.68;;;10.00;90.70;;;;;;5015406;28;20527;-85
2021/05/15 01:25:13;;;;;;;13.27;9.88;;;10.00;90.30;;;;;;5014349;28;20504;-86
2021/05/15 01:27:39;;;;;;;12.95;10.55;;;10.00;90.40;;;;;;5015067;28;20493;-86
2021/05/15 01:30:06;;;;;;;13.38;10.45;;;10.00;90.40;;;;;;5015298;28;20050;-86
2021/05/15 01:32:32;;;;;;;11.43;9.55;;;9.90;90.30;;;;;;5014382;28;20445;-86
2021/05/15 01:34:58;;;;;;;11.40;10.10;;;9.90;90.40;;;;;;5015109;28;20092;-86
2021/05/15 01:37:23;;;;;;;13.70;10.05;;;9.90;90.40;;;;;;5015163;28;20406;-86
2021/05/15 01:39:49;;;;;;;13.32;9.85;;;9.90;90.40;;;;;;5014116;28;20549;-86
2021/05/15 01:42:18;;;;;;;12.13;10.52;;;9.80;90.50;;;;;;5015082;28;20060;-86
2021/05/15 01:44:44;;;;;;;12.40;10.13;;;9.80;90.60;;;;;;5014365;28;20045;-86
2021/05/15 01:47:10;;;;;;;12.88;10.25;;;9.80;90.60;;;;;;5014852;28;20080;-86
2021/05/15 01:49:35;;;;;;;11.68;9.75;;;9.80;90.70;;;;;;5014932;28;20070;-86
2021/05/15 01:52:01;;;;;;;12.98;10.18;;;9.80;90.50;;;;;;5013926;28;20053;-86
2021/05/15 01:54:27;;;;;;;12.70;10.52;;;9.70;90.60;;;;;;5014395;28;20050;-86
2021/05/15 01:56:52;;;;;;;11.43;9.32;;;9.70;90.50;;;;;;5015584;28;20053;-86
2021/05/15 01:59:18;;;;;;;13.60;10.15;;;9.70;90.40;;;;;;5014075;28;20042;-86
2021/05/15 02:01:43;;;;;;;13.25;10.77;;;9.70;90.20;;;;;;5013878;28;20509;-86
2021/05/15 02:04:09;;;;;;;12.07;10.20;;;9.60;90.10;;;;;;5014820;28;20509;-86
2021/05/15 02:06:35;;;;;;;13.45;10.50;;;9.60;90.20;;;;;;5013579;28;20054;-86
2021/05/15 02:09:00;;;;;;;11.32;9.25;;;9.60;90.40;;;;;;5014203;28;20460;-86
2021/05/15 02:11:26;;;;;;;13.15;10.65;;;9.60;90.20;;;;;;5013578;28;20057;-86
2021/05/15 02:13:52;;;;;;;12.35;10.15;;;9.60;90.20;;;;;;5013821;28;20042;-86
2021/05/15 02:16:18;;;;;;;14.45;10.73;;;9.50;90.20;;;;;;5014592;28;20137;-86
2021/05/15 02:18:45;;;;;;;12.93;11.20;;;9.60;90.40;;;;;;5014422;28;20130;-86
2021/05/15 02:21:10;;;;;;;13.95;10.88;;;9.60;90.60;;;;;;5013298;28;20057;-86
2021/05/15 02:23:37;;;;;;;13.98;10.82;;;9.60;90.70;;;;;;5014106;28;20108;-86
2021/05/15 02:26:03;;;;;;;13.60;11.70;;;9.60;90.80;;;;;;5014324;28;20054;-86
2021/05/15 02:28:31;;;;;;;13.38;11.70;;;9.60;90.80;;;;;;5013565;28;20046;-86
2021/05/15 02:30:57;;;;;;;12.23;10.85;;;9.60;90.80;;;;;;5014347;28;20054;-86
2021/05/15 02:33:23;;;;;;;14.20;11.23;;;9.50;90.70;;;;;;5014345;28;20486;-86
2021/05/15 02:35:49;;;;;;;14.65;11.38;;;9.60;90.90;;;;;;5013159;28;20417;-85
2021/05/15 02:38:17;;;;;;;14.35;11.55;;;9.60;90.80;;;;;;5014024;28;20046;-86
2021/05/15 02:40:45;;;;;;;13.38;11.45;;;9.60;90.70;;;;;;5013875;28;20494;-86
2021/05/15 02:43:11;;;;;;;15.13;11.27;;;9.60;90.70;;;;;;5013282;28;20049;-86
2021/05/15 02:45:37;;;;;;;15.18;11.75;;;9.50;90.70;;;;;;5013906;28;20149;-86
2021/05/15 02:48:03;;;;;;;15.68;12.10;;;9.50;90.80;;;;;;5013344;28;20053;-86
2021/05/15 02:50:29;;;;;;;14.10;11.35;;;9.60;90.90;;;;;;5014555;28;20046;-87
2021/05/15 02:52:54;;;;;;;14.77;11.65;;;9.60;90.90;;;;;;5014504;28;20132;-87
2021/05/15 02:55:24;;;;;;;13.70;11.48;;;9.60;90.80;;;;;;5013610;28;20061;-87
2021/05/15 02:57:50;;;;;;;15.45;11.90;;;9.50;90.70;;;;;;5014709;28;20049;-87
2021/05/15 03:00:22;;;;;;;15.05;11.48;;;9.50;90.60;;;;;;5014495;28;20064;-86
2021/05/15 03:02:47;;;;;;;15.23;12.23;;;9.50;90.50;;;;;;5013593;28;20509;-86
2021/05/15 03:05:15;;;;;;;15.13;12.68;;;9.50;90.80;;;;;;5013904;28;20046;-86
2021/05/15 03:07:42;;;;;;;15.52;12.38;;;9.50;90.60;;;;;;5013743;28;20074;-86
2021/05/15 03:10:10;;;;;;;15.23;11.82;;;9.50;90.60;;;;;;5013239;28;20054;-87
2021/05/15 03:12:36;;;;;;;13.38;11.60;;;9.50;90.60;;;;;;5014831;28;20045;-86
2021/05/15 03:15:06;;;;;;;15.57;11.93;;;9.40;90.40;;;;;;5020328;28;20054;-86
2021/05/15 03:17:32;;;;;;;14.50;11.90;;;9.40;90.40;;;;;;5019364;28;20056;-86
2021/05/15 03:19:57;;;;;;;15.13;11.40;;;9.40;90.30;;;;;;5020247;28;20049;-86
2021/05/15 03:22:23;;;;;;;14.18;12.10;;;9.40;90.20;;;;;;5019999;28;20053;-86
2021/05/15 03:24:50;;;;;;;16.33;12.50;;;9.40;90.10;;;;;;5019403;28;20061;-86
2021/05/15 03:27:16;;;;;;;16.05;12.52;;;9.30;90.20;;;;;;5020150;28;20132;-86
2021/05/15 03:29:42;;;;;;;16.17;12.23;;;9.40;90.40;;;;;;5020019;28;20132;-86
2021/05/15 03:32:10;;;;;;;15.68;12.75;;;9.40;90.50;;;;;;5019115;28;20108;-86
2021/05/15 03:34:36;;;;;;;16.45;12.93;;;9.40;90.70;;;;;;5020210;28;20046;-86
2021/05/15 03:37:02;;;;;;;19.80;12.10;;;9.40;90.70;;;;;;5020124;28;20073;-85
2021/05/15 03:39:28;;;;;;;17.00;13.30;;;9.40;90.70;;;;;;5019271;28;20173;-85
2021/05/15 03:41:54;;;;;;;16.70;12.65;;;9.30;90.80;;;;;;5019767;28;20077;-85
2021/05/15 03:44:19;;;;;;;15.60;12.52;;;9.40;90.80;;;;;;5018988;28;20065;-86
2021/05/15 03:46:45;;;;;;;15.43;12.93;;;9.40;90.60;;;;;;5019949;28;20474;-86
2021/05/15 03:49:11;;;;;;;15.73;12.88;;;9.40;90.60;;;;;;5019948;28;20045;-86
2021/05/15 03:51:36;;;;;;;16.30;12.90;;;9.40;90.70;;;;;;5019158;28;20373;-86
2021/05/15 03:54:03;;;;;;;14.88;12.32;;;9.40;90.80;;;;;;5019864;28;20585;-85
2021/05/15 03:56:28;;;;;;;15.48;12.43;;;9.40;90.90;;;;;;5019652;28;20100;-86
2021/05/15 03:58:54;;;;;;;14.45;12.00;;;9.40;90.90;;;;;;5018940;28;20444;-87
2021/05/15 04:01:21;;;;;;;16.02;12.77;;;9.40;90.90;;;;;;5019362;28;20092;-86
2021/05/15 04:03:47;;;;;;;14.00;12.05;;;9.40;90.90;;;;;;5019728;28;20104;-86
2021/05/15 04:06:13;;;;;;;17.15;12.07;;;9.40;91.00;;;;;;5018806;28;20101;-86
2021/05/15 04:08:39;;;;;;;16.33;12.38;;;9.40;90.90;;;;;;5019830;28;20042;-86
2021/05/15 04:11:04;;;;;;;15.25;12.55;;;9.40;90.80;;;;;;5019626;28;20053;-86
2021/05/15 04:16:00;;;;;;;17.45;12.85;;;9.40;90.70;;;;;;5019695;28;20399;-86
2021/05/15 04:18:28;;;;;;;15.45;12.68;;;9.40;90.70;;;;;;5019525;28;20050;-86
2021/05/15 04:20:55;;;;;;;14.93;12.10;;;9.40;90.70;;;;;;5018639;28;20085;-86
2021/05/15 04:23:21;;;;;;;14.60;11.70;;;9.40;90.80;;;;;;5019505;28;20402;-86
2021/05/15 04:25:48;;;;;;;15.57;12.65;;;9.40;90.80;;;;;;5015746;28;20080;-86
2021/05/15 04:28:15;;;;;;;14.98;11.02;;;9.40;90.60;;;;;;5015483;28;20136;-86
2021/05/15 04:30:41;;;;;;;14.05;11.68;;;9.30;90.40;;;;;;5016470;28;20054;-86
2021/05/15 04:33:07;;;;;;;15.05;12.35;;;9.30;90.30;;;;;;5016383;28;20475;-87
2021/05/15 04:35:32;;;;;;;13.43;11.30;;;9.30;90.30;;;;;;5015533;28;20486;-87
2021/05/15 04:38:00;;;;;;;13.35;11.95;;;9.30;90.30;;;;;;5016086;28;20057;-87
2021/05/15 04:40:26;;;;;;;14.80;11.55;;;9.30;90.40;;;;;;5015938;28;20054;-87
2021/05/15 04:42:52;;;;;;;15.18;12.20;;;9.30;90.50;;;;;;5015281;28;20058;-88
2021/05/15 04:45:18;;;;;;;14.77;11.55;;;9.30;90.60;;;;;;5016193;28;20046;-88
2021/05/15 04:47:43;;;;;;;17.40;12.38;;;9.30;90.60;;;;;;5015402;28;20382;-89
2021/05/15 04:50:10;;;;;;;13.52;11.45;;;9.40;90.50;;;;;;5016221;28;20065;-89
2021/05/15 04:52:36;;;;;;;15.43;12.80;;;9.40;90.70;;;;;;5016071;28;20077;-88
2021/05/15 04:55:03;;;;;;;15.32;11.95;;;9.40;90.70;;;;;;5015094;28;20061;-88
2021/05/15 04:57:29;;;;;;;15.55;11.98;;;9.40;90.80;;;;;;5014477;28;20084;-89
2021/05/15 04:59:54;;;;;;;14.52;12.38;;;9.40;90.80;;;;;;5015768;28;20474;-89
2021/05/15 05:02:20;;;;;;;15.90;12.23;;;9.40;90.80;;;;;;5015335;28;20406;-89
2021/05/15 05:04:46;;;;;;;14.82;11.45;;;9.40;90.80;;;;;;5015907;28;20100;-89
2021/05/15 05:07:11;;;;;;;15.15;11.82;;;9.40;90.80;;;;;;5015812;28;20050;-88
2021/05/15 05:09:37;;;;;;;15.88;11.48;;;9.40;90.70;;;;;;5014766;28;20375;-88
2021/05/15 05:12:03;;;;;;;14.20;10.80;;;9.40;90.80;;;;;;5015575;28;20057;-89
2021/05/15 05:14:29;;;;;;;15.35;12.13;;;9.50;90.80;;;;;;5015493;28;20555;-89
2021/05/15 05:16:55;;;;;;;14.95;11.98;;;9.50;90.80;;;;;;5014820;28;20081;-89
2021/05/15 05:19:24;;;;;;;15.25;11.85;;;9.50;90.80;;;;;;5015452;28;20418;-88
2021/05/15 05:21:51;;;;;;;16.48;12.45;;;9.50;90.70;;;;;;5015268;28;20504;-88
2021/05/15 05:24:17;;;;;;;15.48;12.25;;;9.50;90.70;;;;;;5014505;28;20050;-89
2021/05/15 05:26:44;;;;;;;15.25;11.95;;;9.50;90.70;;;;;;5015365;28;20058;-88
2021/05/15 05:29:10;;;;;;;14.63;12.25;;;9.50;90.70;;;;;;5015849;28;20045;-88
2021/05/15 05:31:40;;;;;;;16.63;12.75;;;9.50;90.80;;;;;;5014659;28;20054;-88
2021/05/15 05:34:09;;;;;;;17.30;12.43;;;9.60;90.80;;;;;;5014945;28;20517;-88
2021/05/15 05:36:36;;;;;;;16.95;12.50;;;9.60;90.70;;;;;;5014894;28;20069;-88
2021/05/15 05:39:07;;;;;;;14.43;11.13;;;9.60;90.60;;;;;;5014310;28;20061;-88
2021/05/15 05:41:33;;;;;;;18.55;11.45;;;9.60;90.40;;;;;;5015139;28;20567;-87
2021/05/15 05:43:58;;;;;;;16.50;12.40;;;9.60;90.30;;;;;;5014604;28;20053;-88
2021/05/15 05:46:24;;;;;;;16.35;11.73;;;9.60;90.40;;;;;;5015047;28;20078;-88
2021/05/15 05:48:49;;;;;;;15.77;12.45;;;9.60;90.40;;;;;;5015028;28;20070;-88
2021/05/15 05:51:15;;;;;;;17.38;12.60;;;9.60;90.40;;;;;;5014150;28;20057;-88
2021/05/15 05:53:41;;;;;;;15.77;12.30;;;9.60;90.40;;;;;;5014612;28;20050;-89
2021/05/15 05:56:07;;;;;;;18.33;13.02;;;9.60;90.40;;;;;;5014327;28;20065;-88
2021/05/15 05:58:32;;;;;;;15.50;12.38;;;9.60;90.40;;;;;;5013937;28;20061;-89
2021/05/15 06:00:59;;;;;;;17.17;12.75;;;9.60;90.50;;;;;;5014847;28;20089;-89
2021/05/15 06:03:24;;;;;;;15.90;12.40;;;9.60;90.60;;;;;;5014729;28;20054;-88
2021/05/15 06:05:50;;;;;;;24.63;15.75;;;9.70;90.50;;;;;;5013774;28;20072;-89
2021/05/15 06:08:16;;;;;;;18.40;13.27;;;9.70;90.50;;;;;;5014738;28;20057;-88
2021/05/15 06:10:42;;;;;;;17.10;13.70;;;9.70;90.50;;;;;;5014623;28;20050;-89
2021/05/15 06:13:09;;;;;;;16.88;13.10;;;9.70;90.50;;;;;;5013641;28;20057;-88
2021/05/15 06:15:36;;;;;;;16.42;12.60;;;9.70;90.60;;;;;;5014490;28;20077;-88
2021/05/15 06:18:02;;;;;;;18.33;12.82;;;9.80;90.60;;;;;;5014512;28;20046;-88
2021/05/15 06:20:28;;;;;;;16.67;12.98;;;9.80;90.60;;;;;;5013467;28;20058;-88
2021/05/15 06:22:54;;;;;;;17.25;13.10;;;9.80;90.60;;;;;;5014205;28;20088;-87
2021/05/15 06:25:20;;;;;;;20.65;14.20;;;9.80;90.50;;;;;;5014315;28;20065;-88
2021/05/15 06:27:47;;;;;;;18.50;13.80;;;9.80;90.50;;;;;;5013540;28;20053;-88
2021/05/15 06:30:15;;;;;;;18.98;13.52;;;9.80;90.60;;;;;;5014196;28;20053;-88
2021/05/15 06:32:41;;;;;;;19.83;14.20;;;9.80;90.60;;;;;;5014304;28;20042;-87
2021/05/15 06:35:08;;;;;;;18.23;13.77;;;9.90;90.60;;;;;;5013367;28;20107;-88
2021/05/15 06:37:33;;;;;;;18.40;14.45;;;9.90;90.60;;;;;;5014152;28;20058;-88
2021/05/15 06:39:59;;;;;;;22.75;15.50;;;9.90;90.90;;;;;;5014199;28;20103;-88
2021/05/15 06:42:24;;;;;;;17.08;13.07;;;9.90;90.60;;;;;;5013259;28;20378;-88
2021/05/15 06:44:50;;;;;;;17.20;13.05;;;9.90;90.60;;;;;;5013998;28;20045;-89
2021/05/15 06:47:17;;;;;;;17.25;13.32;;;9.90;90.60;;;;;;5012926;28;20133;-87
2021/05/15 06:49:43;;;;;;;18.58;13.85;;;9.90;90.60;;;;;;5015945;28;20072;-88
2021/05/15 06:52:10;;;;;;;16.60;12.68;;;9.90;90.60;;;;;;5013892;28;20053;-88
2021/05/15 06:54:36;;;;;;;20.80;13.27;;;10.00;90.60;;;;;;5012920;28;20089;-88
2021/05/15 06:57:02;;;;;;;20.58;14.70;;;10.00;90.60;;;;;;5013900;28;20080;-88
2021/05/15 06:59:27;;;;;;;18.55;12.90;;;10.00;90.60;;;;;;5013847;28;20080;-88
2021/05/15 07:01:53;;;;;;;18.60;13.50;;;10.00;90.60;;;;;;5013081;28;20549;-88
2021/05/15 07:04:19;;;;;;;18.52;13.23;;;10.00;90.90;;;;;;5013800;28;20046;-88
2021/05/15 07:06:45;;;;;;;16.88;13.50;;;10.00;90.60;;;;;;4996248;28;20099;-88
2021/05/15 07:09:10;;;;;;;19.88;13.63;;;10.00;90.60;;;;;;5013277;28;20077;-88
2021/05/15 07:11:36;;;;;;;17.65;13.77;;;10.00;90.60;;;;;;5013813;28;20058;-89
2021/05/15 07:14:02;;;;;;;19.70;13.30;;;10.00;90.60;;;;;;5013730;28;20093;-89
2021/05/15 07:16:28;;;;;;;16.05;12.57;;;10.10;90.60;;;;;;5012966;28;20050;-88
2021/05/15 07:18:53;;;;;;;21.95;15.05;;;10.10;90.60;;;;;;5013878;28;20414;-87
2021/05/15 07:21:19;;;;;;;19.08;13.15;;;10.10;90.70;;;;;;5013727;28;20478;-87
2021/05/15 07:23:45;;;;;;;20.15;14.00;;;10.10;90.70;;;;;;5012923;28;20100;-88
2021/05/15 07:26:11;;;;;;;14.90;12.38;;;10.10;90.70;;;;;;5013752;28;20053;-87
2021/05/15 07:28:38;;;;;;;18.75;13.50;;;10.10;90.70;;;;;;5013658;28;20128;-88
2021/05/15 07:31:04;;;;;;;19.77;13.40;;;10.10;90.70;;;;;;5012769;28;20057;-88
2021/05/15 07:33:50;;;;;;;17.42;13.15;;;10.10;90.60;;;;;;4999338;28;20451;-88
2021/05/15 07:36:17;;;;;;;19.88;14.40;;;10.20;90.60;;;;;;5013643;28;20084;-87
2021/05/15 07:38:43;;;;;;;17.15;12.98;;;10.20;90.60;;;;;;5012666;28;20046;-87
2021/05/15 07:41:09;;;;;;;18.45;12.50;;;10.20;90.60;;;;;;5013349;28;20053;-87
2021/05/15 07:43:35;;;;;;;18.25;13.90;;;10.20;90.60;;;;;;5012397;28;20050;-87
2021/05/15 07:46:02;;;;;;;20.20;13.65;;;10.30;90.60;;;;;;5013219;28;20555;-87
2021/05/15 07:48:38;;;;;;;19.00;13.45;;;10.30;90.60;;;;;;5013246;28;20112;-87
2021/05/15 07:51:06;;;;;;;21.23;14.25;;;10.30;90.60;;;;;;5012828;28;20050;-87
2021/05/15 07:53:32;;;;;;;18.50;13.93;;;10.40;90.50;;;;;;5013370;28;20050;-87
2021/05/15 07:55:58;;;;;;;17.73;12.88;;;10.40;90.40;;;;;;5012994;28;20129;-86
2021/05/15 07:58:24;;;;;;;19.88;14.07;;;10.40;90.30;;;;;;5012495;28;20137;-86
2021/05/15 08:00:49;;;;;;;17.67;13.18;;;10.50;90.40;;;;;;5015504;28;20056;-88
2021/05/15 08:03:15;;;;;;;16.40;12.70;;;10.50;90.30;;;;;;5016606;28;20058;-87
2021/05/15 08:05:41;;;;;;;18.80;13.20;;;10.50;90.30;;;;;;5016146;28;20095;-86
2021/05/15 08:08:07;;;;;;;21.65;13.93;;;10.60;90.30;;;;;;5016891;28;20130;-87
2021/05/15 08:10:33;;;;;;;20.05;13.05;;;10.60;90.30;;;;;;5016605;28;20549;-87
2021/05/15 08:13:00;;;;;;;18.85;14.10;;;10.70;90.20;;;;;;5015686;28;20057;-87
2021/05/15 08:15:26;;;;;;;17.70;13.48;;;10.70;90.20;;;;;;5016697;28;20421;-87
2021/05/15 08:17:53;;;;;;;16.90;12.90;;;10.80;90.10;;;;;;5016753;28;20060;-87
2021/05/15 08:20:20;;;;;;;21.33;13.75;;;10.80;90.10;;;;;;5015610;28;20057;-87
2021/05/15 08:22:45;;;;;;;22.05;15.07;;;10.80;90.00;;;;;;5016432;28;20050;-86
2021/05/15 08:25:12;;;;;;;18.60;12.57;;;10.90;89.80;;;;;;5016680;28;20457;-86
2021/05/15 08:27:40;;;;;;;22.33;14.38;;;10.90;89.70;;;;;;5015708;28;20049;-87
2021/05/15 08:30:18;;;;;;;27.08;15.43;;;10.90;89.70;;;;;;5016622;28;20112;-86
2021/05/15 08:32:51;;;;;;;20.67;14.02;;;11.00;89.60;;;;;;5015757;28;20440;-87
2021/05/15 08:35:19;;;;;;;18.90;13.52;;;11.00;89.60;;;;;;5016672;28;20133;-86
2021/05/15 08:37:45;;;;;;;22.98;15.80;;;11.00;89.60;;;;;;5016302;28;20048;-87
2021/05/15 08:40:12;;;;;;;27.73;16.20;;;11.00;89.60;;;;;;5015287;28;20053;-87
2021/05/15 08:42:40;;;;;;;23.95;15.48;;;11.00;89.50;;;;;;5016530;28;20057;-87
2021/05/15 08:45:08;;;;;;;22.17;14.65;;;11.10;89.50;;;;;;5017470;28;20130;-88
2021/05/15 08:47:37;;;;;;;25.05;15.45;;;11.10;89.50;;;;;;5016266;28;20077;-87
2021/05/15 08:50:09;;;;;;;23.20;15.75;;;11.10;89.50;;;;;;5017292;28;20121;-87
2021/05/15 08:52:40;;;;;;;22.08;14.75;;;11.10;89.40;;;;;;5016988;28;20045;-86
2021/05/15 08:55:15;;;;;;;23.13;14.00;;;11.10;89.50;;;;;;5016256;28;20058;-87
2021/05/15 08:57:41;;;;;;;22.30;14.98;;;11.20;89.70;;;;;;5017005;28;20482;-87
2021/05/15 09:00:19;;;;;;;22.30;15.70;;;11.20;89.70;;;;;;5017036;28;20046;-87
2021/05/15 09:02:47;;;;;;;27.38;15.93;;;11.20;89.60;;;;;;5015229;28;20124;-87
2021/05/15 09:05:14;;;;;;;28.90;18.75;;;11.30;89.60;;;;;;5015735;28;20202;-87
2021/05/15 09:07:44;;;;;;;32.95;18.85;;;11.30;89.50;;;;;;5015783;28;20158;-86
2021/05/15 09:10:12;;;;;;;31.13;19.15;;;11.30;89.50;;;;;;5015126;28;20056;-87
2021/05/15 09:12:38;;;;;;;28.20;17.80;;;11.30;89.50;;;;;;5015562;28;20045;-87
2021/05/15 09:15:06;;;;;;;33.95;20.13;;;11.40;89.50;;;;;;5015000;28;20050;-87
2021/05/15 09:17:50;;;;;;;27.25;17.65;;;11.40;89.40;;;;;;5015592;28;20050;-87
2021/05/15 09:20:26;;;;;;;30.75;17.25;;;11.40;89.50;;;;;;5015352;28;20054;-87
2021/05/15 09:22:52;;;;;;;28.05;18.88;;;11.40;89.60;;;;;;5014728;28;20050;-87
2021/05/15 09:25:18;;;;;;;31.40;19.48;;;11.40;89.70;;;;;;5015575;28;20053;-87
2021/05/15 09:27:44;;;;;;;26.98;17.90;;;11.40;89.70;;;;;;5015526;28;20050;-87
2021/05/15 09:30:11;;;;;;;33.58;22.02;;;11.40;89.70;;;;;;5014341;28;20054;-86
2021/05/15 09:32:37;;;;;;;26.23;17.55;;;11.50;89.50;;;;;;5015158;28;20049;-87
2021/05/15 09:35:05;;;;;;;36.55;22.58;;;11.50;89.50;;;;;;5015361;28;20434;-87
2021/05/15 09:37:40;;;;;;;37.67;21.52;;;11.50;89.60;;;;;;5014322;28;20075;-86
2021/05/15 09:40:18;;;;;;;35.63;23.02;;;11.50;89.60;;;;;;5014975;28;20054;-88
2021/05/15 09:42:45;;;;;;;33.25;21.70;;;11.50;89.50;;;;;;5015148;28;20065;-87
2021/05/15 09:45:21;;;;;;;33.33;22.35;;;11.50;89.60;;;;;;5014406;28;20429;-87
2021/05/15 09:47:54;;;;;;;36.95;22.52;;;11.50;89.50;;;;;;5015028;28;20046;-86
2021/05/15 09:50:23;;;;;;;37.17;23.80;;;11.50;89.70;;;;;;5014095;28;20591;-86
2021/05/15 09:52:48;;;;;;;33.95;21.20;;;11.50;89.60;;;;;;5014838;28;20486;-86
2021/05/15 09:55:15;;;;;;;33.55;22.77;;;11.50;89.70;;;;;;5014522;28;20050;-86
2021/05/15 09:57:41;;;;;;;34.83;22.00;;;11.50;89.70;;;;;;5013740;28;20081;-86
2021/05/15 10:00:11;;;;;;;36.42;23.35;;;11.60;89.80;;;;;;5014737;28;20061;-86
2021/05/15 10:02:37;;;;;;;36.55;24.08;;;11.60;89.90;;;;;;5015071;28;20053;-86
2021/05/15 10:05:12;;;;;;;37.00;24.80;;;11.60;89.80;;;;;;5013934;28;20046;-87
2021/05/15 10:07:38;;;;;;;38.53;24.75;;;11.60;89.60;;;;;;5014406;28;20061;-87
2021/05/15 10:10:08;;;;;;;35.03;22.85;;;11.60;89.60;;;;;;5014575;28;20048;-86
2021/05/15 10:12:34;;;;;;;37.28;24.85;;;11.60;89.70;;;;;;5013746;28;20124;-86
2021/05/15 10:15:01;;;;;;;39.45;26.38;;;11.70;89.90;;;;;;5014278;28;20488;-86
2021/05/15 10:17:27;;;;;;;39.20;25.45;;;11.70;89.70;;;;;;5014340;28;20050;-86
2021/05/15 10:19:54;;;;;;;30.48;21.38;;;11.70;89.70;;;;;;5014011;28;20116;-86
2021/05/15 10:22:19;;;;;;;35.08;24.70;;;11.70;89.80;;;;;;5013318;28;20077;-86
2021/05/15 10:24:47;;;;;;;39.10;26.05;;;11.70;90.20;;;;;;5014305;28;20470;-87
2021/05/15 10:27:15;;;;;;;37.92;25.73;;;11.70;89.80;;;;;;5013571;28;20103;-86
2021/05/15 10:29:48;;;;;;;41.17;27.60;;;11.80;90.20;;;;;;5014212;28;20042;-87
2021/05/15 10:32:14;;;;;;;37.30;24.45;;;11.80;89.90;;;;;;5013504;28;20119;-86
2021/05/15 10:34:40;;;;;;;34.67;23.65;;;11.80;89.80;;;;;;5013941;28;20481;-87
2021/05/15 10:37:20;;;;;;;41.35;27.52;;;11.80;89.90;;;;;;5014123;28;20073;-87
2021/05/15 10:39:51;;;;;;;39.92;27.42;;;11.90;89.80;;;;;;5013446;28;20050;-87
2021/05/15 10:42:30;;;;;;;41.10;26.77;;;11.90;89.80;;;;;;5014053;28;20146;-87
2021/05/15 10:44:56;;;;;;;42.53;28.70;;;11.90;89.70;;;;;;5013975;28;20100;-87
2021/05/15 10:47:22;;;;;;;32.47;23.80;;;12.00;89.90;;;;;;5011693;28;20049;-86
2021/05/15 10:49:51;;;;;;;37.13;24.80;;;12.00;89.80;;;;;;5013813;28;20049;-87
2021/05/15 10:52:21;;;;;;;39.03;27.17;;;12.00;89.80;;;;;;5013903;28;20048;-86
2021/05/15 10:54:51;;;;;;;40.70;26.85;;;12.10;89.80;;;;;;5012784;28;20149;-86
2021/05/15 10:57:26;;;;;;;36.80;24.85;;;12.10;89.80;;;;;;5013705;28;20052;-86
2021/05/15 11:00:00;;;;;;;40.00;27.55;;;12.10;89.60;;;;;;5013842;28;20096;-86
2021/05/15 11:02:37;;;;;;;35.55;25.45;;;12.20;89.40;;;;;;5012548;28;20441;-86
2021/05/15 11:05:11;;;;;;;38.58;26.77;;;12.30;89.20;;;;;;5013780;28;20046;-87
2021/05/15 11:07:40;;;;;;;39.00;27.20;;;12.40;89.20;;;;;;5012900;28;20042;-87
2021/05/15 11:10:14;;;;;;;38.45;25.90;;;12.40;88.80;;;;;;5013688;28;20133;-88
2021/05/15 11:12:41;;;;;;;33.40;24.58;;;12.50;88.30;;;;;;5013346;28;20065;-86
2021/05/15 11:15:10;;;;;;;38.63;26.75;;;12.60;88.30;;;;;;5012524;28;20481;-86
2021/05/15 11:17:35;;;;;;;32.63;24.63;;;12.60;88.10;;;;;;5013563;28;20049;-86
2021/05/15 11:20:08;;;;;;;31.67;23.13;;;12.60;88.00;;;;;;5013540;28;20449;-86
2021/05/15 11:22:37;;;;;;;34.25;24.73;;;12.60;87.80;;;;;;5012805;28;20189;-87
2021/05/15 11:25:27;;;;;;;36.10;25.30;;;12.70;87.80;;;;;;5013479;28;20140;-87
2021/05/15 11:28:01;;;;;;;36.88;25.90;;;12.70;87.70;;;;;;5014080;28;20073;-87
2021/05/15 11:30:44;;;;;;;36.72;25.40;;;12.70;87.60;;;;;;5012488;28;20073;-86
2021/05/15 11:33:12;;;;;;;34.45;25.08;;;12.70;87.40;;;;;;5013329;28;20058;-86
2021/05/15 11:35:40;;;;;;;34.30;24.80;;;12.70;87.00;;;;;;5016245;28;20397;-87
2021/05/15 11:38:20;;;;;;;30.58;24.17;;;12.70;86.70;;;;;;5017067;28;20046;-86
2021/05/15 11:40:46;;;;;;;36.00;26.40;;;12.80;86.30;;;;;;5017393;28;20100;-87
2021/05/15 11:43:39;;;;;;;32.60;24.63;;;12.80;86.30;;;;;;5016494;28;20410;-86
2021/05/15 11:46:07;;;;;;;35.25;25.55;;;12.90;86.20;;;;;;5017259;28;20050;-87
2021/05/15 11:48:37;;;;;;;34.30;24.80;;;12.90;86.20;;;;;;5017184;28;20073;-87
2021/05/15 11:51:17;;;;;;;32.90;24.08;;;13.00;85.80;;;;;;5016149;28;20042;-86
2021/05/15 11:53:45;;;;;;;35.10;25.20;;;13.10;85.40;;;;;;5017109;28;20108;-86
2021/05/15 11:56:12;;;;;;;33.05;23.75;;;13.20;84.90;;;;;;5016309;28;20409;-86
2021/05/15 11:58:57;;;;;;;33.42;24.15;;;13.30;84.50;;;;;;5015928;28;20050;-86
2021/05/15 12:01:24;;;;;;;30.70;24.00;;;13.40;84.20;;;;;;5017047;28;20061;-86
2021/05/15 12:03:51;;;;;;;31.35;24.20;;;13.50;84.10;;;;;;5016092;28;20050;-85
2021/05/15 12:06:17;;;;;;;32.03;24.60;;;13.60;83.70;;;;;;5016921;28;20076;-87
2021/05/15 12:08:45;;;;;;;32.40;24.17;;;13.60;83.50;;;;;;5016720;28;20060;-87
2021/05/15 12:11:11;;;;;;;32.15;23.92;;;13.70;83.60;;;;;;5015847;28;20046;-86
2021/05/15 12:13:52;;;;;;;31.25;23.83;;;13.80;83.60;;;;;;5016783;28;20046;-87
2021/05/15 12:16:18;;;;;;;32.58;23.88;;;13.80;83.10;;;;;;5016881;28;20137;-87
2021/05/15 12:18:44;;;;;;;32.20;24.50;;;13.80;82.90;;;;;;5015762;28;20041;-88
2021/05/15 12:21:09;;;;;;;31.38;24.00;;;13.90;82.80;;;;;;5016381;28;20112;-87
2021/05/15 12:23:35;;;;;;;31.10;23.90;;;13.90;82.80;;;;;;5016362;28;20128;-86
2021/05/15 12:26:02;;;;;;;32.55;24.52;;;13.90;82.80;;;;;;5015729;28;20560;-87
2021/05/15 12:28:30;;;;;;;34.72;24.23;;;13.90;82.50;;;;;;5016440;28;20140;-86
2021/05/15 12:30:58;;;;;;;29.52;21.58;;;14.00;82.30;;;;;;5016242;28;20060;-86
2021/05/15 12:33:25;;;;;;;31.05;23.77;;;14.00;81.90;;;;;;5015473;28;20045;-86
2021/05/15 12:36:06;;;;;;;31.65;22.95;;;14.00;81.90;;;;;;5016073;28;20061;-86
2021/05/15 12:38:43;;;;;;;29.05;21.88;;;14.00;81.70;;;;;;5016117;28;20482;-86